sensor_id;sensor_type;location;lat;lon;timestamp;temperature;humidity
47658;DHT22;33958;48.404;10.598;2022-08-27T00:01:35;19.10;99.90
47658;DHT22;33958;48.404;10.598;2022-08-27T00:04:02;18.90;99.90
47658;DHT22;33958;48.404;10.598;2022-08-27T00:06:29;18.80;99.90
47658;DHT22;33958;48.404;10.598;2022-08-27T00:08:56;18.70;99.90
47658;DHT22;33958;48.404;10.598;2022-08-27T00:11:24;18.70;99.90
47658;DHT22;33958;48.404;10.598;2022-08-27T00:13:51;18.60;99.90
47658;DHT22;33958;48.404;10.598;2022-08-27T00:16:19;18.60;99.90
47658;DHT22;33958;48.404;10.598;2022-08-27T00:18:47;18.70;99.90
47658;DHT22;33958;48.404;10.598;2022-08-27T00:21:15;18.60;99.90
47658;DHT22;33958;48.404;10.598;2022-08-27T00:23:42;18.60;99.90
47658;DHT22;33958;48.404;10.598;2022-08-27T00:26:09;18.50;99.90
47658;DHT22;33958;48.404;10.598;2022-08-27T00:28:37;18.50;99.90
47658;DHT22;33958;48.404;10.598;2022-08-27T00:31:04;18.40;99.90
47658;DHT22;33958;48.404;10.598;2022-08-27T00:33:31;18.40;99.90
47658;DHT22;33958;48.404;10.598;2022-08-27T00:35:59;18.50;99.90
47658;DHT22;33958;48.404;10.598;2022-08-27T00:38:26;18.50;99.90
47658;DHT22;33958;48.404;10.598;2022-08-27T00:40:53;18.40;99.90
47658;DHT22;33958;48.404;10.598;2022-08-27T00:43:23;18.30;99.90
47658;DHT22;33958;48.404;10.598;2022-08-27T00:45:54;18.40;99.90
47658;DHT22;33958;48.404;10.598;2022-08-27T00:48:27;18.30;99.90
47658;DHT22;33958;48.404;10.598;2022-08-27T00:50:54;18.40;99.90
47658;DHT22;33958;48.404;10.598;2022-08-27T00:53:24;18.30;99.90
47658;DHT22;33958;48.404;10.598;2022-08-27T00:55:52;18.30;99.90
47658;DHT22;33958;48.404;10.598;2022-08-27T00:58:37;18.30;99.90
47658;DHT22;33958;48.404;10.598;2022-08-27T01:01:06;18.30;99.90
47658;DHT22;33958;48.404;10.598;2022-08-27T01:03:34;18.30;99.90
47658;DHT22;33958;48.404;10.598;2022-08-27T01:06:03;18.30;99.90
47658;DHT22;33958;48.404;10.598;2022-08-27T01:08:35;18.20;99.90
47658;DHT22;33958;48.404;10.598;2022-08-27T01:11:05;18.10;99.90
47658;DHT22;33958;48.404;10.598;2022-08-27T01:13:33;18.20;99.90
47658;DHT22;33958;48.404;10.598;2022-08-27T01:16:23;18.10;99.90
47658;DHT22;33958;48.404;10.598;2022-08-27T01:18:52;18.10;99.90
47658;DHT22;33958;48.404;10.598;2022-08-27T01:21:48;18.10;99.90
47658;DHT22;33958;48.404;10.598;2022-08-27T01:24:41;18.10;99.90
47658;DHT22;33958;48.404;10.598;2022-08-27T01:27:14;18.10;99.90
47658;DHT22;33958;48.404;10.598;2022-08-27T01:29:42;18.00;99.90
47658;DHT22;33958;48.404;10.598;2022-08-27T01:32:22;18.00;99.90
47658;DHT22;33958;48.404;10.598;2022-08-27T01:34:50;18.10;99.90
47658;DHT22;33958;48.404;10.598;2022-08-27T01:37:18;18.20;99.90
47658;DHT22;33958;48.404;10.598;2022-08-27T01:39:49;18.20;99.90
47658;DHT22;33958;48.404;10.598;2022-08-27T01:42:20;18.10;99.90
47658;DHT22;33958;48.404;10.598;2022-08-27T01:44:57;18.10;99.90
47658;DHT22;33958;48.404;10.598;2022-08-27T01:47:26;18.10;99.90
47658;DHT22;33958;48.404;10.598;2022-08-27T01:49:57;18.00;99.90
47658;DHT22;33958;48.404;10.598;2022-08-27T01:52:27;17.90;99.90
47658;DHT22;33958;48.404;10.598;2022-08-27T01:54:54;17.90;99.90
47658;DHT22;33958;48.404;10.598;2022-08-27T01:57:22;18.00;99.90
47658;DHT22;33958;48.404;10.598;2022-08-27T01:59:52;17.90;99.90
47658;DHT22;33958;48.404;10.598;2022-08-27T02:02:20;18.00;99.90
47658;DHT22;33958;48.404;10.598;2022-08-27T02:04:49;17.90;99.90
47658;DHT22;33958;48.404;10.598;2022-08-27T02:07:17;17.90;99.90
47658;DHT22;33958;48.404;10.598;2022-08-27T02:09:44;17.90;99.90
47658;DHT22;33958;48.404;10.598;2022-08-27T02:12:11;18.00;99.90
47658;DHT22;33958;48.404;10.598;2022-08-27T02:14:38;17.90;99.90
47658;DHT22;33958;48.404;10.598;2022-08-27T02:17:05;17.60;99.90
47658;DHT22;33958;48.404;10.598;2022-08-27T02:19:32;17.70;99.90
47658;DHT22;33958;48.404;10.598;2022-08-27T02:21:59;17.80;99.90
47658;DHT22;33958;48.404;10.598;2022-08-27T02:24:27;17.90;99.90
47658;DHT22;33958;48.404;10.598;2022-08-27T02:26:55;18.10;99.90
47658;DHT22;33958;48.404;10.598;2022-08-27T02:29:23;18.10;99.90
47658;DHT22;33958;48.404;10.598;2022-08-27T02:31:51;18.00;99.90
47658;DHT22;33958;48.404;10.598;2022-08-27T02:34:18;18.00;99.90
47658;DHT22;33958;48.404;10.598;2022-08-27T02:36:45;18.00;99.90
47658;DHT22;33958;48.404;10.598;2022-08-27T02:39:13;18.10;99.90
47658;DHT22;33958;48.404;10.598;2022-08-27T02:41:40;18.10;99.90
47658;DHT22;33958;48.404;10.598;2022-08-27T02:44:07;18.20;99.90
47658;DHT22;33958;48.404;10.598;2022-08-27T02:46:37;18.30;99.90
47658;DHT22;33958;48.404;10.598;2022-08-27T02:49:05;18.10;99.90
47658;DHT22;33958;48.404;10.598;2022-08-27T02:51:32;18.10;99.90
47658;DHT22;33958;48.404;10.598;2022-08-27T02:54:00;18.20;99.90
47658;DHT22;33958;48.404;10.598;2022-08-27T02:56:27;18.30;99.90
47658;DHT22;33958;48.404;10.598;2022-08-27T02:58:54;18.30;99.90
47658;DHT22;33958;48.404;10.598;2022-08-27T03:01:21;18.30;99.90
47658;DHT22;33958;48.404;10.598;2022-08-27T03:03:48;18.10;99.90
47658;DHT22;33958;48.404;10.598;2022-08-27T03:06:15;18.00;99.90
47658;DHT22;33958;48.404;10.598;2022-08-27T03:08:42;18.10;99.90
47658;DHT22;33958;48.404;10.598;2022-08-27T03:11:19;18.10;99.90
47658;DHT22;33958;48.404;10.598;2022-08-27T03:13:49;18.00;99.90
47658;DHT22;33958;48.404;10.598;2022-08-27T03:16:16;17.90;99.90
47658;DHT22;33958;48.404;10.598;2022-08-27T03:18:43;17.90;99.90
47658;DHT22;33958;48.404;10.598;2022-08-27T03:21:20;17.80;99.90
47658;DHT22;33958;48.404;10.598;2022-08-27T03:23:47;17.70;99.90
47658;DHT22;33958;48.404;10.598;2022-08-27T03:26:15;17.70;99.90
47658;DHT22;33958;48.404;10.598;2022-08-27T03:28:42;17.80;99.90
47658;DHT22;33958;48.404;10.598;2022-08-27T03:31:18;17.80;99.90
47658;DHT22;33958;48.404;10.598;2022-08-27T03:33:55;17.70;99.90
47658;DHT22;33958;48.404;10.598;2022-08-27T03:36:24;17.60;99.90
47658;DHT22;33958;48.404;10.598;2022-08-27T03:38:52;17.50;99.90
47658;DHT22;33958;48.404;10.598;2022-08-27T03:41:19;17.50;99.90
47658;DHT22;33958;48.404;10.598;2022-08-27T03:43:46;17.50;99.90
47658;DHT22;33958;48.404;10.598;2022-08-27T03:46:13;17.50;99.90
47658;DHT22;33958;48.404;10.598;2022-08-27T03:48:40;17.40;99.90
47658;DHT22;33958;48.404;10.598;2022-08-27T03:51:10;17.30;99.90
47658;DHT22;33958;48.404;10.598;2022-08-27T03:53:39;17.30;99.90
47658;DHT22;33958;48.404;10.598;2022-08-27T03:56:06;17.30;99.90
47658;DHT22;33958;48.404;10.598;2022-08-27T03:58:35;17.30;99.90
47658;DHT22;33958;48.404;10.598;2022-08-27T04:01:05;17.20;99.90
47658;DHT22;33958;48.404;10.598;2022-08-27T04:03:33;17.10;99.90
47658;DHT22;33958;48.404;10.598;2022-08-27T04:06:01;17.10;99.90
47658;DHT22;33958;48.404;10.598;2022-08-27T04:08:29;17.20;99.90
47658;DHT22;33958;48.404;10.598;2022-08-27T04:10:56;17.00;99.90
47658;DHT22;33958;48.404;10.598;2022-08-27T04:13:22;16.90;99.90
47658;DHT22;33958;48.404;10.598;2022-08-27T04:15:51;16.90;99.90
47658;DHT22;33958;48.404;10.598;2022-08-27T04:18:18;16.90;99.90
47658;DHT22;33958;48.404;10.598;2022-08-27T04:20:47;16.90;99.90
47658;DHT22;33958;48.404;10.598;2022-08-27T04:23:15;16.90;99.90
47658;DHT22;33958;48.404;10.598;2022-08-27T04:25:43;16.90;99.90
47658;DHT22;33958;48.404;10.598;2022-08-27T04:28:11;16.90;99.90
47658;DHT22;33958;48.404;10.598;2022-08-27T04:30:43;16.80;99.90
47658;DHT22;33958;48.404;10.598;2022-08-27T04:33:11;16.70;99.90
47658;DHT22;33958;48.404;10.598;2022-08-27T04:35:40;16.40;99.90
47658;DHT22;33958;48.404;10.598;2022-08-27T04:38:07;16.60;99.90
47658;DHT22;33958;48.404;10.598;2022-08-27T04:40:36;16.50;99.90
47658;DHT22;33958;48.404;10.598;2022-08-27T04:43:22;16.60;99.90
47658;DHT22;33958;48.404;10.598;2022-08-27T04:45:49;16.80;99.90
47658;DHT22;33958;48.404;10.598;2022-08-27T04:48:17;17.20;99.90
47658;DHT22;33958;48.404;10.598;2022-08-27T04:50:46;17.10;99.90
47658;DHT22;33958;48.404;10.598;2022-08-27T04:53:14;17.10;99.90
47658;DHT22;33958;48.404;10.598;2022-08-27T04:55:45;17.30;99.90
47658;DHT22;33958;48.404;10.598;2022-08-27T04:58:12;17.40;99.90
47658;DHT22;33958;48.404;10.598;2022-08-27T05:00:57;17.40;99.90
47658;DHT22;33958;48.404;10.598;2022-08-27T05:03:27;17.50;99.90
47658;DHT22;33958;48.404;10.598;2022-08-27T05:06:00;17.60;99.90
47658;DHT22;33958;48.404;10.598;2022-08-27T05:08:28;17.70;99.90
47658;DHT22;33958;48.404;10.598;2022-08-27T05:10:54;17.70;99.90
47658;DHT22;33958;48.404;10.598;2022-08-27T05:13:22;17.80;99.90
47658;DHT22;33958;48.404;10.598;2022-08-27T05:16:00;17.80;99.90
47658;DHT22;33958;48.404;10.598;2022-08-27T05:18:28;17.90;99.90
47658;DHT22;33958;48.404;10.598;2022-08-27T05:20:55;18.00;99.90
47658;DHT22;33958;48.404;10.598;2022-08-27T05:23:23;18.00;99.90
47658;DHT22;33958;48.404;10.598;2022-08-27T05:25:51;17.80;99.90
47658;DHT22;33958;48.404;10.598;2022-08-27T05:28:21;17.80;99.90
47658;DHT22;33958;48.404;10.598;2022-08-27T05:31:00;18.00;99.90
47658;DHT22;33958;48.404;10.598;2022-08-27T05:33:28;18.10;99.90
47658;DHT22;33958;48.404;10.598;2022-08-27T05:35:57;18.20;99.90
47658;DHT22;33958;48.404;10.598;2022-08-27T05:38:26;18.30;99.90
47658;DHT22;33958;48.404;10.598;2022-08-27T05:41:10;18.40;99.90
47658;DHT22;33958;48.404;10.598;2022-08-27T05:43:40;18.20;99.90
47658;DHT22;33958;48.404;10.598;2022-08-27T05:46:10;18.30;99.90
47658;DHT22;33958;48.404;10.598;2022-08-27T05:48:39;18.50;99.90
47658;DHT22;33958;48.404;10.598;2022-08-27T05:51:12;18.80;99.90
47658;DHT22;33958;48.404;10.598;2022-08-27T05:53:48;18.80;99.90
47658;DHT22;33958;48.404;10.598;2022-08-27T05:56:18;18.70;99.90
47658;DHT22;33958;48.404;10.598;2022-08-27T05:58:47;18.70;99.90
47658;DHT22;33958;48.404;10.598;2022-08-27T06:01:36;18.70;99.90
47658;DHT22;33958;48.404;10.598;2022-08-27T06:04:04;18.70;99.90
47658;DHT22;33958;48.404;10.598;2022-08-27T06:06:35;18.70;99.90
47658;DHT22;33958;48.404;10.598;2022-08-27T06:09:04;18.60;99.90
47658;DHT22;33958;48.404;10.598;2022-08-27T06:11:31;18.60;99.90
47658;DHT22;33958;48.404;10.598;2022-08-27T06:13:58;18.40;99.90
47658;DHT22;33958;48.404;10.598;2022-08-27T06:16:25;18.50;99.90
47658;DHT22;33958;48.404;10.598;2022-08-27T06:18:54;18.60;99.90
47658;DHT22;33958;48.404;10.598;2022-08-27T06:21:23;18.70;99.90
47658;DHT22;33958;48.404;10.598;2022-08-27T06:23:53;18.30;99.90
47658;DHT22;33958;48.404;10.598;2022-08-27T06:26:22;18.50;99.90
47658;DHT22;33958;48.404;10.598;2022-08-27T06:28:49;18.60;99.90
47658;DHT22;33958;48.404;10.598;2022-08-27T06:31:19;18.60;99.90
47658;DHT22;33958;48.404;10.598;2022-08-27T06:33:47;18.70;99.90
47658;DHT22;33958;48.404;10.598;2022-08-27T06:36:21;18.70;99.90
47658;DHT22;33958;48.404;10.598;2022-08-27T06:38:51;18.80;99.90
47658;DHT22;33958;48.404;10.598;2022-08-27T06:41:20;19.10;99.90
47658;DHT22;33958;48.404;10.598;2022-08-27T06:43:50;19.00;99.90
47658;DHT22;33958;48.404;10.598;2022-08-27T06:46:18;18.70;99.90
47658;DHT22;33958;48.404;10.598;2022-08-27T06:48:46;19.00;99.90
47658;DHT22;33958;48.404;10.598;2022-08-27T06:51:19;19.10;99.90
47658;DHT22;33958;48.404;10.598;2022-08-27T06:53:47;19.30;99.90
47658;DHT22;33958;48.404;10.598;2022-08-27T06:56:15;19.20;99.90
47658;DHT22;33958;48.404;10.598;2022-08-27T06:58:43;19.50;99.90
47658;DHT22;33958;48.404;10.598;2022-08-27T07:01:13;19.60;99.90
47658;DHT22;33958;48.404;10.598;2022-08-27T07:03:41;19.50;99.90
47658;DHT22;33958;48.404;10.598;2022-08-27T07:06:11;19.60;99.90
47658;DHT22;33958;48.404;10.598;2022-08-27T07:08:38;19.90;99.90
47658;DHT22;33958;48.404;10.598;2022-08-27T07:11:10;19.70;99.90
47658;DHT22;33958;48.404;10.598;2022-08-27T07:13:39;19.70;99.90
47658;DHT22;33958;48.404;10.598;2022-08-27T07:16:09;19.60;99.90
47658;DHT22;33958;48.404;10.598;2022-08-27T07:18:37;19.60;99.90
47658;DHT22;33958;48.404;10.598;2022-08-27T07:21:07;19.70;99.90
47658;DHT22;33958;48.404;10.598;2022-08-27T07:23:35;19.80;99.90
47658;DHT22;33958;48.404;10.598;2022-08-27T07:26:08;19.90;99.90
47658;DHT22;33958;48.404;10.598;2022-08-27T07:28:36;19.70;99.90
47658;DHT22;33958;48.404;10.598;2022-08-27T07:31:05;19.90;99.90
47658;DHT22;33958;48.404;10.598;2022-08-27T07:33:35;20.30;99.90
47658;DHT22;33958;48.404;10.598;2022-08-27T07:36:06;20.30;99.90
47658;DHT22;33958;48.404;10.598;2022-08-27T07:38:34;20.40;99.90
47658;DHT22;33958;48.404;10.598;2022-08-27T07:41:06;20.30;99.90
47658;DHT22;33958;48.404;10.598;2022-08-27T07:43:33;20.30;99.90
47658;DHT22;33958;48.404;10.598;2022-08-27T07:46:23;20.30;99.90
47658;DHT22;33958;48.404;10.598;2022-08-27T07:48:50;20.50;99.90
47658;DHT22;33958;48.404;10.598;2022-08-27T07:51:19;20.50;99.90
47658;DHT22;33958;48.404;10.598;2022-08-27T07:53:47;20.60;99.90
47658;DHT22;33958;48.404;10.598;2022-08-27T07:56:14;20.60;99.90
47658;DHT22;33958;48.404;10.598;2022-08-27T07:58:41;20.80;99.90
47658;DHT22;33958;48.404;10.598;2022-08-27T08:01:09;21.00;99.90
47658;DHT22;33958;48.404;10.598;2022-08-27T08:03:36;21.30;99.90
47658;DHT22;33958;48.404;10.598;2022-08-27T08:06:14;21.20;99.90
47658;DHT22;33958;48.404;10.598;2022-08-27T08:08:42;21.20;99.90
47658;DHT22;33958;48.404;10.598;2022-08-27T08:11:11;21.50;99.90
47658;DHT22;33958;48.404;10.598;2022-08-27T08:13:39;21.60;99.30
47658;DHT22;33958;48.404;10.598;2022-08-27T08:16:06;21.50;99.60
47658;DHT22;33958;48.404;10.598;2022-08-27T08:18:34;21.40;99.10
47658;DHT22;33958;48.404;10.598;2022-08-27T08:21:03;21.50;98.30
47658;DHT22;33958;48.404;10.598;2022-08-27T08:23:31;21.50;97.70
47658;DHT22;33958;48.404;10.598;2022-08-27T08:25:59;21.50;98.20
47658;DHT22;33958;48.404;10.598;2022-08-27T08:28:27;21.90;98.20
47658;DHT22;33958;48.404;10.598;2022-08-27T08:30:54;22.10;97.70
47658;DHT22;33958;48.404;10.598;2022-08-27T08:33:22;22.40;97.00
47658;DHT22;33958;48.404;10.598;2022-08-27T08:35:49;22.70;96.20
47658;DHT22;33958;48.404;10.598;2022-08-27T08:38:17;22.90;96.00
47658;DHT22;33958;48.404;10.598;2022-08-27T08:40:51;22.70;95.40
47658;DHT22;33958;48.404;10.598;2022-08-27T08:45:47;23.30;95.00
47658;DHT22;33958;48.404;10.598;2022-08-27T08:48:18;22.90;95.30
47658;DHT22;33958;48.404;10.598;2022-08-27T08:50:50;22.70;95.30
47658;DHT22;33958;48.404;10.598;2022-08-27T08:56:19;22.80;94.80
47658;DHT22;33958;48.404;10.598;2022-08-27T08:58:56;22.80;94.80
47658;DHT22;33958;48.404;10.598;2022-08-27T09:01:26;22.50;95.50
47658;DHT22;33958;48.404;10.598;2022-08-27T09:03:58;22.80;94.90
47658;DHT22;33958;48.404;10.598;2022-08-27T09:06:38;23.10;95.30
47658;DHT22;33958;48.404;10.598;2022-08-27T09:09:22;22.60;96.00
47658;DHT22;33958;48.404;10.598;2022-08-27T09:12:00;23.20;95.20
47658;DHT22;33958;48.404;10.598;2022-08-27T09:14:35;22.80;95.30
47658;DHT22;33958;48.404;10.598;2022-08-27T09:17:04;23.10;94.20
47658;DHT22;33958;48.404;10.598;2022-08-27T09:19:36;23.50;94.00
47658;DHT22;33958;48.404;10.598;2022-08-27T09:22:14;23.70;93.00
47658;DHT22;33958;48.404;10.598;2022-08-27T09:25:17;23.90;93.20
47658;DHT22;33958;48.404;10.598;2022-08-27T09:27:53;23.30;93.40
47658;DHT22;33958;48.404;10.598;2022-08-27T09:30:26;23.70;92.90
47658;DHT22;33958;48.404;10.598;2022-08-27T09:33:02;24.60;91.50
47658;DHT22;33958;48.404;10.598;2022-08-27T09:35:44;23.60;91.60
47658;DHT22;33958;48.404;10.598;2022-08-27T09:38:23;24.50;91.20
47658;DHT22;33958;48.404;10.598;2022-08-27T09:40:52;24.30;90.10
47658;DHT22;33958;48.404;10.598;2022-08-27T09:43:23;25.00;89.20
47658;DHT22;33958;48.404;10.598;2022-08-27T09:45:53;24.80;86.60
47658;DHT22;33958;48.404;10.598;2022-08-27T09:48:30;26.30;86.90
47658;DHT22;33958;48.404;10.598;2022-08-27T09:51:00;26.20;84.40
47658;DHT22;33958;48.404;10.598;2022-08-27T09:53:29;26.00;81.30
47658;DHT22;33958;48.404;10.598;2022-08-27T09:56:02;26.60;82.50
47658;DHT22;33958;48.404;10.598;2022-08-27T09:58:52;26.40;82.70
47658;DHT22;33958;48.404;10.598;2022-08-27T10:01:23;27.10;81.40
47658;DHT22;33958;48.404;10.598;2022-08-27T10:04:12;25.70;85.40
47658;DHT22;33958;48.404;10.598;2022-08-27T10:06:49;25.80;81.40
47658;DHT22;33958;48.404;10.598;2022-08-27T10:09:28;27.30;78.80
47658;DHT22;33958;48.404;10.598;2022-08-27T10:12:09;26.20;79.90
47658;DHT22;33958;48.404;10.598;2022-08-27T10:14:44;26.60;80.80
47658;DHT22;33958;48.404;10.598;2022-08-27T10:20:03;26.20;80.80
47658;DHT22;33958;48.404;10.598;2022-08-27T10:22:48;25.70;82.80
47658;DHT22;33958;48.404;10.598;2022-08-27T10:36:47;25.60;83.00
47658;DHT22;33958;48.404;10.598;2022-08-27T10:50:28;25.30;84.20
47658;DHT22;33958;48.404;10.598;2022-08-27T10:53:06;25.60;82.20
47658;DHT22;33958;48.404;10.598;2022-08-27T10:55:42;26.10;81.40
47658;DHT22;33958;48.404;10.598;2022-08-27T10:58:23;25.60;83.30
47658;DHT22;33958;48.404;10.598;2022-08-27T11:01:21;25.50;84.00
47658;DHT22;33958;48.404;10.598;2022-08-27T11:09:09;26.60;78.80
47658;DHT22;33958;48.404;10.598;2022-08-27T11:11:41;27.90;74.90
47658;DHT22;33958;48.404;10.598;2022-08-27T11:14:53;27.80;75.00
47658;DHT22;33958;48.404;10.598;2022-08-27T11:17:34;27.90;74.70
47658;DHT22;33958;48.404;10.598;2022-08-27T11:20:10;28.40;74.50
47658;DHT22;33958;48.404;10.598;2022-08-27T11:22:59;27.60;73.80
47658;DHT22;33958;48.404;10.598;2022-08-27T11:28:03;27.80;74.80
47658;DHT22;33958;48.404;10.598;2022-08-27T11:30:59;27.40;76.30
47658;DHT22;33958;48.404;10.598;2022-08-27T11:33:48;26.90;77.50
47658;DHT22;33958;48.404;10.598;2022-08-27T11:36:54;26.00;82.20
47658;DHT22;33958;48.404;10.598;2022-08-27T11:42:42;23.90;90.20
47658;DHT22;33958;48.404;10.598;2022-08-27T11:45:29;24.00;90.40
47658;DHT22;33958;48.404;10.598;2022-08-27T11:48:02;23.90;90.70
47658;DHT22;33958;48.404;10.598;2022-08-27T11:50:40;23.30;91.20
47658;DHT22;33958;48.404;10.598;2022-08-27T11:53:07;23.00;93.10
47658;DHT22;33958;48.404;10.598;2022-08-27T11:55:37;22.50;98.00
47658;DHT22;33958;48.404;10.598;2022-08-27T11:58:29;21.30;99.90
47658;DHT22;33958;48.404;10.598;2022-08-27T12:00:58;19.70;99.90
47658;DHT22;33958;48.404;10.598;2022-08-27T12:03:32;18.90;99.90
47658;DHT22;33958;48.404;10.598;2022-08-27T12:06:08;18.60;99.90
47658;DHT22;33958;48.404;10.598;2022-08-27T12:08:37;18.60;99.90
47658;DHT22;33958;48.404;10.598;2022-08-27T12:13:52;18.10;99.90
47658;DHT22;33958;48.404;10.598;2022-08-27T12:21:54;18.50;99.90
47658;DHT22;33958;48.404;10.598;2022-08-27T12:32:30;18.50;99.90
47658;DHT22;33958;48.404;10.598;2022-08-27T12:35:09;18.50;99.90
47658;DHT22;33958;48.404;10.598;2022-08-27T12:37:49;18.20;99.90
47658;DHT22;33958;48.404;10.598;2022-08-27T12:40:24;18.60;99.90
47658;DHT22;33958;48.404;10.598;2022-08-27T12:43:06;18.70;99.90
47658;DHT22;33958;48.404;10.598;2022-08-27T12:45:42;18.70;99.90
47658;DHT22;33958;48.404;10.598;2022-08-27T12:48:09;18.90;99.90
47658;DHT22;33958;48.404;10.598;2022-08-27T12:50:37;19.00;99.90
47658;DHT22;33958;48.404;10.598;2022-08-27T12:53:38;19.20;99.90
47658;DHT22;33958;48.404;10.598;2022-08-27T12:56:34;19.20;99.90
47658;DHT22;33958;48.404;10.598;2022-08-27T13:04:22;19.60;99.90
47658;DHT22;33958;48.404;10.598;2022-08-27T13:06:50;19.80;99.90
47658;DHT22;33958;48.404;10.598;2022-08-27T13:09:26;20.20;99.90
47658;DHT22;33958;48.404;10.598;2022-08-27T13:11:53;20.30;99.90
47658;DHT22;33958;48.404;10.598;2022-08-27T13:14:25;20.20;99.90
47658;DHT22;33958;48.404;10.598;2022-08-27T13:17:03;20.10;99.90
47658;DHT22;33958;48.404;10.598;2022-08-27T13:19:37;20.40;99.90
47658;DHT22;33958;48.404;10.598;2022-08-27T13:22:09;20.40;99.90
47658;DHT22;33958;48.404;10.598;2022-08-27T13:24:49;20.70;99.90
47658;DHT22;33958;48.404;10.598;2022-08-27T13:27:23;20.50;99.90
47658;DHT22;33958;48.404;10.598;2022-08-27T13:29:50;20.60;99.90
47658;DHT22;33958;48.404;10.598;2022-08-27T13:32:17;21.00;99.90
47658;DHT22;33958;48.404;10.598;2022-08-27T13:34:45;20.40;99.90
47658;DHT22;33958;48.404;10.598;2022-08-27T13:37:39;21.00;99.90
47658;DHT22;33958;48.404;10.598;2022-08-27T13:40:08;21.10;99.90
47658;DHT22;33958;48.404;10.598;2022-08-27T13:42:40;20.70;99.90
47658;DHT22;33958;48.404;10.598;2022-08-27T13:45:08;20.90;99.90
47658;DHT22;33958;48.404;10.598;2022-08-27T13:47:43;20.50;99.90
47658;DHT22;33958;48.404;10.598;2022-08-27T13:50:32;20.80;99.90
47658;DHT22;33958;48.404;10.598;2022-08-27T13:53:05;21.20;99.90
47658;DHT22;33958;48.404;10.598;2022-08-27T13:55:52;21.00;99.90
47658;DHT22;33958;48.404;10.598;2022-08-27T13:58:26;20.90;99.90
47658;DHT22;33958;48.404;10.598;2022-08-27T14:00:54;21.10;99.90
47658;DHT22;33958;48.404;10.598;2022-08-27T14:03:35;20.90;99.90
47658;DHT22;33958;48.404;10.598;2022-08-27T14:06:05;20.70;99.90
47658;DHT22;33958;48.404;10.598;2022-08-27T14:08:33;20.60;99.90
47658;DHT22;33958;48.404;10.598;2022-08-27T14:11:07;21.20;99.90
47658;DHT22;33958;48.404;10.598;2022-08-27T14:13:43;21.10;99.90
47658;DHT22;33958;48.404;10.598;2022-08-27T14:16:15;21.60;99.90
47658;DHT22;33958;48.404;10.598;2022-08-27T14:21:30;21.40;99.90
47658;DHT22;33958;48.404;10.598;2022-08-27T14:23:57;21.50;99.90
47658;DHT22;33958;48.404;10.598;2022-08-27T14:26:24;21.40;99.90
47658;DHT22;33958;48.404;10.598;2022-08-27T14:28:53;21.70;99.90
47658;DHT22;33958;48.404;10.598;2022-08-27T14:31:21;21.70;99.90
47658;DHT22;33958;48.404;10.598;2022-08-27T14:33:49;21.60;99.90
47658;DHT22;33958;48.404;10.598;2022-08-27T14:36:18;21.80;99.90
47658;DHT22;33958;48.404;10.598;2022-08-27T14:38:47;21.90;99.90
47658;DHT22;33958;48.404;10.598;2022-08-27T14:41:15;22.60;99.90
47658;DHT22;33958;48.404;10.598;2022-08-27T14:43:47;22.30;99.90
47658;DHT22;33958;48.404;10.598;2022-08-27T14:46:25;22.80;99.90
47658;DHT22;33958;48.404;10.598;2022-08-27T14:48:54;22.60;99.90
47658;DHT22;33958;48.404;10.598;2022-08-27T14:51:25;22.30;99.90
47658;DHT22;33958;48.404;10.598;2022-08-27T14:53:53;22.80;99.90
47658;DHT22;33958;48.404;10.598;2022-08-27T14:56:22;22.70;99.90
47658;DHT22;33958;48.404;10.598;2022-08-27T14:58:49;22.90;99.90
47658;DHT22;33958;48.404;10.598;2022-08-27T15:01:17;22.70;99.90
47658;DHT22;33958;48.404;10.598;2022-08-27T15:03:46;22.50;99.90
47658;DHT22;33958;48.404;10.598;2022-08-27T15:06:15;22.60;99.90
47658;DHT22;33958;48.404;10.598;2022-08-27T15:08:43;22.70;99.90
47658;DHT22;33958;48.404;10.598;2022-08-27T15:11:15;22.50;99.90
47658;DHT22;33958;48.404;10.598;2022-08-27T15:13:43;22.90;99.90
47658;DHT22;33958;48.404;10.598;2022-08-27T15:16:32;23.20;99.90
47658;DHT22;33958;48.404;10.598;2022-08-27T15:19:01;23.60;99.90
47658;DHT22;33958;48.404;10.598;2022-08-27T15:21:29;23.10;99.70
47658;DHT22;33958;48.404;10.598;2022-08-27T15:24:19;23.10;99.90
47658;DHT22;33958;48.404;10.598;2022-08-27T15:26:49;23.30;98.30
47658;DHT22;33958;48.404;10.598;2022-08-27T15:29:17;23.10;99.90
47658;DHT22;33958;48.404;10.598;2022-08-27T15:31:44;23.50;99.90
47658;DHT22;33958;48.404;10.598;2022-08-27T15:34:11;23.20;99.90
47658;DHT22;33958;48.404;10.598;2022-08-27T15:36:39;23.00;99.90
47658;DHT22;33958;48.404;10.598;2022-08-27T15:39:06;23.40;99.90
47658;DHT22;33958;48.404;10.598;2022-08-27T15:41:35;23.60;97.80
47658;DHT22;33958;48.404;10.598;2022-08-27T15:44:22;23.70;99.90
47658;DHT22;33958;48.404;10.598;2022-08-27T15:46:49;23.40;97.90
47658;DHT22;33958;48.404;10.598;2022-08-27T15:49:17;24.40;98.30
47658;DHT22;33958;48.404;10.598;2022-08-27T15:51:44;24.10;95.60
47658;DHT22;33958;48.404;10.598;2022-08-27T15:54:11;24.10;96.20
47658;DHT22;33958;48.404;10.598;2022-08-27T15:56:38;24.00;96.70
47658;DHT22;33958;48.404;10.598;2022-08-27T15:59:05;23.00;97.70
47658;DHT22;33958;48.404;10.598;2022-08-27T16:01:34;22.70;98.30
47658;DHT22;33958;48.404;10.598;2022-08-27T16:04:03;22.20;98.60
47658;DHT22;33958;48.404;10.598;2022-08-27T16:06:31;22.30;98.90
47658;DHT22;33958;48.404;10.598;2022-08-27T16:08:58;22.10;99.90
47658;DHT22;33958;48.404;10.598;2022-08-27T16:11:25;22.00;98.80
47658;DHT22;33958;48.404;10.598;2022-08-27T16:13:52;22.30;99.90
47658;DHT22;33958;48.404;10.598;2022-08-27T16:16:30;22.30;99.60
47658;DHT22;33958;48.404;10.598;2022-08-27T16:19:01;22.10;99.90
47658;DHT22;33958;48.404;10.598;2022-08-27T16:21:29;22.10;99.90
47658;DHT22;33958;48.404;10.598;2022-08-27T16:23:56;22.20;99.90
47658;DHT22;33958;48.404;10.598;2022-08-27T16:26:23;22.10;99.90
47658;DHT22;33958;48.404;10.598;2022-08-27T16:28:50;22.00;99.90
47658;DHT22;33958;48.404;10.598;2022-08-27T16:31:17;22.00;99.90
47658;DHT22;33958;48.404;10.598;2022-08-27T16:33:44;22.00;99.90
47658;DHT22;33958;48.404;10.598;2022-08-27T16:36:11;21.90;99.60
47658;DHT22;33958;48.404;10.598;2022-08-27T16:38:38;21.90;99.90
47658;DHT22;33958;48.404;10.598;2022-08-27T16:41:06;21.50;99.90
47658;DHT22;33958;48.404;10.598;2022-08-27T16:43:33;21.60;99.90
47658;DHT22;33958;48.404;10.598;2022-08-27T16:46:01;21.50;99.90
47658;DHT22;33958;48.404;10.598;2022-08-27T16:48:28;21.40;99.90